createdAt,value
2023-02-19T00:00:15.028Z,100.00
2023-02-19T00:02:43.724Z,100.00
2023-02-19T00:05:12.387Z,100.00
2023-02-19T00:07:40.639Z,100.00
2023-02-19T00:10:10.784Z,100.00
2023-02-19T00:12:39.071Z,100.00
2023-02-19T00:15:08.112Z,100.00
2023-02-19T00:17:36.466Z,100.00
2023-02-19T00:20:06.735Z,100.00
2023-02-19T00:22:35.029Z,100.00
2023-02-19T00:25:03.352Z,100.00
2023-02-19T00:27:32.937Z,100.00
2023-02-19T00:30:01.267Z,100.00
2023-02-19T00:32:29.848Z,100.00
2023-02-19T00:34:58.791Z,100.00
2023-02-19T00:37:28.617Z,100.00
2023-02-19T00:39:57.397Z,100.00
2023-02-19T00:42:26.314Z,100.00
2023-02-19T00:44:54.700Z,99.75
2023-02-19T00:47:22.945Z,99.42
2023-02-19T00:49:52.103Z,99.19
2023-02-19T00:52:21.748Z,99.15
2023-02-19T00:54:50.619Z,99.38
2023-02-19T00:57:18.957Z,99.46
2023-02-19T00:59:47.260Z,99.71
2023-02-19T01:02:16.680Z,99.78
2023-02-19T01:04:45.005Z,99.89
2023-02-19T01:07:13.379Z,99.97
2023-02-19T01:09:41.727Z,100.00
2023-02-19T01:12:10.131Z,100.00
2023-02-19T01:14:39.032Z,100.00
2023-02-19T01:17:11.855Z,100.00
2023-02-19T01:19:40.599Z,100.00
2023-02-19T01:22:08.908Z,100.00
2023-02-19T01:24:37.844Z,100.00
2023-02-19T01:27:06.304Z,100.00
2023-02-19T01:29:34.676Z,100.00
2023-02-19T01:32:03.117Z,100.00
2023-02-19T01:34:35.862Z,100.00
2023-02-19T01:37:05.964Z,100.00
2023-02-19T01:39:34.170Z,100.00
2023-02-19T01:42:03.347Z,100.00
2023-02-19T01:44:31.769Z,100.00
2023-02-19T01:46:59.967Z,100.00
2023-02-19T01:49:30.114Z,100.00
2023-02-19T01:52:04.412Z,100.00
2023-02-19T01:54:35.056Z,100.00
2023-02-19T01:57:04.867Z,100.00
2023-02-19T01:59:33.403Z,100.00
2023-02-19T02:02:02.279Z,100.00
2023-02-19T02:04:32.992Z,100.00
2023-02-19T02:07:02.464Z,100.00
2023-02-19T02:09:49.979Z,100.00
2023-02-19T02:12:22.150Z,100.00
2023-02-19T02:14:51.192Z,100.00
2023-02-19T02:17:30.694Z,100.00
2023-02-19T02:20:14.812Z,100.00
2023-02-19T02:22:57.788Z,100.00
2023-02-19T02:25:44.757Z,100.00
2023-02-19T02:28:40.782Z,100.00
2023-02-19T02:31:15.725Z,100.00
2023-02-19T02:33:54.845Z,100.00
2023-02-19T02:36:35.507Z,100.00
2023-02-19T02:39:07.379Z,100.00
2023-02-19T02:41:42.440Z,100.00
2023-02-19T02:44:11.503Z,100.00
2023-02-19T02:46:41.693Z,100.00
2023-02-19T02:49:17.472Z,100.00
2023-02-19T02:51:48.017Z,100.00
2023-02-19T02:55:04.100Z,100.00
2023-02-19T02:57:33.670Z,100.00
2023-02-19T03:00:02.016Z,100.00
2023-02-19T03:02:31.746Z,100.00
2023-02-19T03:05:39.374Z,100.00
2023-02-19T03:08:16.579Z,100.00
2023-02-19T03:10:47.951Z,100.00
2023-02-19T03:13:54.862Z,100.00
2023-02-19T03:16:45.447Z,100.00
2023-02-19T03:19:21.875Z,100.00
2023-02-19T03:22:13.317Z,100.00
2023-02-19T03:25:06.279Z,100.00
2023-02-19T03:27:35.138Z,100.00
2023-02-19T03:30:08.272Z,100.00
2023-02-19T03:32:40.620Z,100.00
2023-02-19T03:35:16.867Z,100.00
2023-02-19T03:37:56.136Z,100.00
2023-02-19T03:40:26.237Z,100.00
2023-02-19T03:43:06.987Z,100.00
2023-02-19T03:45:45.360Z,100.00
2023-02-19T03:48:36.408Z,100.00
2023-02-19T03:51:21.080Z,100.00
2023-02-19T03:54:03.738Z,100.00
2023-02-19T03:56:40.808Z,100.00
2023-02-19T03:59:30.493Z,100.00
2023-02-19T04:02:06.722Z,100.00
2023-02-19T04:04:38.298Z,100.00
2023-02-19T04:07:06.631Z,100.00
2023-02-19T04:09:39.349Z,100.00
2023-02-19T04:12:12.692Z,100.00
2023-02-19T04:14:46.173Z,100.00
2023-02-19T04:17:20.175Z,100.00
2023-02-19T04:19:48.910Z,100.00
2023-02-19T04:22:17.591Z,100.00
2023-02-19T04:24:50.447Z,100.00
2023-02-19T04:27:18.792Z,100.00
2023-02-19T04:29:48.054Z,100.00
2023-02-19T04:32:16.285Z,100.00
2023-02-19T04:34:44.593Z,100.00
2023-02-19T04:37:12.993Z,100.00
2023-02-19T04:39:41.396Z,100.00
2023-02-19T04:42:10.652Z,100.00
2023-02-19T04:44:39.111Z,100.00
2023-02-19T04:47:07.331Z,100.00
2023-02-19T04:49:36.398Z,100.00
2023-02-19T04:52:05.655Z,100.00
2023-02-19T04:54:35.497Z,100.00
2023-02-19T04:57:03.904Z,100.00
2023-02-19T04:59:32.919Z,100.00
2023-02-19T05:02:02.466Z,100.00
2023-02-19T05:04:32.920Z,100.00
2023-02-19T05:07:02.094Z,100.00
2023-02-19T05:09:32.590Z,100.00
2023-02-19T05:12:00.846Z,100.00
2023-02-19T05:14:29.326Z,100.00
2023-02-19T05:16:57.651Z,100.00
2023-02-19T05:19:30.810Z,100.00
2023-02-19T05:21:59.237Z,100.00
2023-02-19T05:24:28.619Z,100.00
2023-02-19T05:26:57.194Z,100.00
2023-02-19T05:29:25.649Z,100.00
2023-02-19T05:31:54.153Z,100.00
2023-02-19T05:34:22.532Z,100.00
2023-02-19T05:36:51.767Z,100.00
2023-02-19T05:39:20.223Z,100.00
2023-02-19T05:41:48.609Z,100.00
2023-02-19T05:44:16.845Z,100.00
2023-02-19T05:46:45.312Z,100.00
2023-02-19T05:49:14.065Z,100.00
2023-02-19T05:51:42.840Z,100.00
2023-02-19T05:54:11.542Z,100.00
2023-02-19T05:56:42.161Z,100.00
2023-02-19T05:59:16.945Z,100.00
2023-02-19T06:01:45.410Z,100.00
2023-02-19T06:04:14.443Z,100.00
2023-02-19T06:06:42.835Z,100.00
2023-02-19T06:09:12.480Z,100.00
2023-02-19T06:11:40.848Z,100.00
2023-02-19T06:14:14.509Z,100.00
2023-02-19T06:16:44.215Z,100.00
2023-02-19T06:19:12.508Z,100.00
2023-02-19T06:21:41.624Z,100.00
2023-02-19T06:24:10.755Z,100.00
2023-02-19T06:26:39.600Z,100.00
2023-02-19T06:29:07.890Z,100.00
2023-02-19T06:31:36.656Z,100.00
2023-02-19T06:34:05.452Z,100.00
2023-02-19T06:36:34.913Z,100.00
2023-02-19T06:39:03.893Z,100.00
2023-02-19T06:41:32.709Z,100.00
2023-02-19T06:44:02.031Z,100.00
2023-02-19T06:46:30.627Z,100.00
2023-02-19T06:48:59.745Z,100.00
2023-02-19T06:51:29.909Z,100.00
2023-02-19T06:53:58.655Z,100.00
2023-02-19T06:56:31.900Z,100.00
2023-02-19T06:59:01.716Z,100.00
2023-02-19T07:01:31.162Z,100.00
2023-02-19T07:04:00.847Z,100.00
2023-02-19T07:06:29.601Z,100.00
2023-02-19T07:09:00.445Z,100.00
2023-02-19T07:11:31.580Z,100.00
2023-02-19T07:14:00.932Z,100.00
2023-02-19T07:16:29.798Z,100.00
2023-02-19T07:18:58.965Z,100.00
2023-02-19T07:21:31.506Z,100.00
2023-02-19T07:24:00.443Z,100.00
2023-02-19T07:26:34.616Z,100.00
2023-02-19T07:29:03.366Z,100.00
2023-02-19T07:31:31.765Z,100.00
2023-02-19T07:34:00.420Z,100.00
2023-02-19T07:36:29.816Z,100.00
2023-02-19T07:38:59.428Z,100.00
2023-02-19T07:41:28.402Z,100.00
2023-02-19T07:43:59.153Z,100.00
2023-02-19T07:46:30.195Z,100.00
2023-02-19T07:48:59.821Z,100.00
2023-02-19T07:51:30.084Z,100.00
2023-02-19T07:54:01.548Z,100.00
2023-02-19T07:56:31.443Z,100.00
2023-02-19T07:59:00.729Z,100.00
2023-02-19T08:01:48.716Z,100.00
2023-02-19T08:04:17.229Z,100.00
2023-02-19T08:06:46.831Z,100.00
2023-02-19T08:09:15.085Z,100.00
2023-02-19T08:12:01.993Z,100.00
2023-02-19T08:14:32.406Z,100.00
2023-02-19T08:17:01.142Z,100.00
2023-02-19T08:19:29.646Z,100.00
2023-02-19T08:21:58.204Z,100.00
2023-02-19T08:24:29.108Z,100.00
2023-02-19T08:26:57.333Z,100.00
2023-02-19T08:29:25.644Z,100.00
2023-02-19T08:31:53.867Z,100.00
2023-02-19T08:34:22.278Z,100.00
2023-02-19T08:36:50.837Z,100.00
2023-02-19T08:39:21.000Z,100.00
2023-02-19T08:41:52.805Z,100.00
2023-02-19T08:44:21.483Z,100.00
2023-02-19T08:46:54.879Z,100.00
2023-02-19T08:49:28.006Z,100.00
2023-02-19T08:51:57.060Z,100.00
2023-02-19T08:54:25.662Z,100.00
2023-02-19T08:56:54.305Z,100.00
2023-02-19T08:59:22.561Z,100.00
2023-02-19T09:01:52.842Z,100.00
2023-02-19T09:04:21.206Z,100.00
2023-02-19T09:06:49.481Z,100.00
2023-02-19T09:09:18.303Z,100.00
2023-02-19T09:11:49.222Z,100.00
2023-02-19T09:14:18.347Z,100.00
2023-02-19T09:16:47.166Z,100.00
2023-02-19T09:19:15.585Z,100.00
2023-02-19T09:21:43.854Z,100.00
2023-02-19T09:24:12.275Z,100.00
2023-02-19T09:26:41.890Z,100.00
2023-02-19T09:29:10.696Z,100.00
2023-02-19T09:31:39.337Z,98.56
2023-02-19T09:34:07.854Z,97.72
2023-02-19T09:36:36.924Z,96.28
2023-02-19T09:39:07.978Z,95.32
2023-02-19T09:41:36.061Z,95.59
2023-02-19T09:44:06.522Z,95.69
2023-02-19T09:46:44.409Z,93.22
2023-02-19T09:49:18.349Z,92.77
2023-02-19T09:51:55.587Z,93.52
2023-02-19T09:54:26.525Z,93.07
2023-02-19T09:56:55.640Z,91.95
2023-02-19T09:59:29.566Z,92.00
2023-02-19T10:02:02.614Z,91.10
2023-02-19T10:04:31.042Z,89.62
2023-02-19T10:07:03.677Z,89.02
2023-02-19T10:09:32.934Z,89.13
2023-02-19T10:12:01.766Z,89.83
2023-02-19T10:14:31.921Z,88.96
2023-02-19T10:17:04.328Z,87.09
2023-02-19T10:19:34.315Z,85.30
2023-02-19T10:22:04.231Z,86.70
2023-02-19T10:24:35.497Z,88.78
2023-02-19T10:27:09.800Z,88.99
2023-02-19T10:29:40.555Z,86.80
2023-02-19T10:32:18.899Z,85.11
2023-02-19T10:35:10.166Z,83.81
2023-02-19T10:37:48.587Z,82.67
2023-02-19T10:40:22.880Z,82.04
2023-02-19T10:43:01.825Z,81.04
2023-02-19T10:45:40.398Z,81.50
2023-02-19T10:48:19.968Z,81.70
2023-02-19T10:50:56.327Z,79.74
2023-02-19T10:53:35.764Z,77.28
2023-02-19T10:56:10.071Z,76.01
2023-02-19T10:58:40.372Z,72.33
2023-02-19T11:01:31.610Z,73.45
2023-02-19T11:04:18.597Z,72.28
2023-02-19T11:06:48.214Z,70.12
2023-02-19T11:09:26.842Z,69.56
2023-02-19T11:11:57.215Z,69.02
2023-02-19T11:14:25.865Z,68.41
2023-02-19T11:16:58.525Z,68.69
2023-02-19T11:19:37.278Z,68.38
2023-02-19T11:22:38.702Z,67.20
2023-02-19T11:25:07.677Z,66.99
2023-02-19T11:27:37.525Z,67.25
2023-02-19T11:30:35.872Z,67.06
2023-02-19T11:33:33.725Z,66.25
2023-02-19T11:36:23.858Z,64.19
2023-02-19T11:38:52.339Z,64.78
2023-02-19T11:41:43.478Z,64.77
2023-02-19T11:44:12.232Z,66.00
2023-02-19T11:46:48.418Z,66.95
2023-02-19T11:49:29.366Z,67.57
2023-02-19T11:52:48.865Z,66.82
2023-02-19T11:55:52.336Z,66.52
2023-02-19T11:58:48.853Z,66.42
2023-02-19T12:01:35.491Z,66.86
2023-02-19T12:04:18.923Z,66.89
2023-02-19T12:06:55.999Z,67.91
2023-02-19T12:10:00.855Z,68.42
2023-02-19T12:12:47.348Z,68.47
2023-02-19T12:15:16.172Z,68.84
2023-02-19T12:18:07.927Z,68.83
2023-02-19T12:20:58.122Z,68.79
2023-02-19T12:23:48.789Z,68.84
2023-02-19T12:26:27.515Z,68.96
2023-02-19T12:29:28.056Z,69.07
2023-02-19T12:32:17.823Z,68.94
2023-02-19T12:34:53.108Z,68.60
2023-02-19T12:37:35.025Z,67.97
2023-02-19T12:40:28.560Z,67.11
2023-02-19T12:43:17.216Z,67.20
2023-02-19T12:45:47.526Z,67.11
2023-02-19T12:48:34.492Z,67.92
2023-02-19T12:51:08.923Z,68.07
2023-02-19T12:53:39.553Z,68.05
2023-02-19T12:56:15.174Z,68.18
2023-02-19T12:58:52.866Z,68.39
2023-02-19T13:01:26.987Z,68.74
2023-02-19T13:04:25.666Z,69.29
2023-02-19T13:06:57.969Z,69.18
2023-02-19T13:09:38.911Z,68.80
2023-02-19T13:12:41.335Z,68.66
2023-02-19T13:15:26.567Z,68.79
2023-02-19T13:17:56.160Z,68.73
2023-02-19T13:20:36.607Z,68.52
2023-02-19T13:23:27.673Z,68.39
2023-02-19T13:26:09.405Z,68.48
2023-02-19T13:28:47.569Z,68.66
2023-02-19T13:31:35.071Z,68.95
2023-02-19T13:34:20.337Z,69.07
2023-02-19T13:36:49.132Z,69.22
2023-02-19T13:39:17.638Z,69.30
2023-02-19T13:41:52.086Z,69.64
2023-02-19T13:44:26.106Z,70.27
2023-02-19T13:46:55.462Z,70.94
2023-02-19T13:49:31.985Z,71.27
2023-02-19T13:52:34.891Z,71.74
2023-02-19T13:55:42.978Z,72.54
2023-02-19T13:58:33.154Z,73.18
2023-02-19T14:01:13.722Z,73.77
2023-02-19T14:04:06.779Z,74.04
2023-02-19T14:07:07.047Z,74.11
2023-02-19T14:09:44.094Z,74.13
2023-02-19T14:12:15.933Z,74.46
2023-02-19T14:14:46.583Z,74.77
2023-02-19T14:17:36.267Z,74.87
2023-02-19T14:20:36.913Z,75.07
2023-02-19T14:23:22.946Z,75.50
2023-02-19T14:25:54.258Z,75.96
2023-02-19T14:28:30.433Z,76.16
2023-02-19T14:31:09.595Z,76.27
2023-02-19T14:33:40.741Z,76.65
2023-02-19T14:36:39.180Z,76.72
2023-02-19T14:39:11.710Z,76.88
2023-02-19T14:41:41.613Z,77.25
2023-02-19T14:44:16.832Z,77.41
2023-02-19T14:46:53.252Z,77.65
2023-02-19T14:49:28.752Z,77.68
2023-02-19T14:52:01.623Z,78.17
2023-02-19T14:54:43.924Z,78.82
2023-02-19T14:57:19.384Z,79.18
2023-02-19T15:00:02.198Z,79.44
2023-02-19T15:02:32.244Z,79.69
2023-02-19T15:05:00.879Z,80.03
2023-02-19T15:07:32.962Z,80.32
2023-02-19T15:10:06.806Z,80.68
2023-02-19T15:12:47.696Z,80.40
2023-02-19T15:15:29.371Z,80.11
2023-02-19T15:17:59.338Z,79.47
2023-02-19T15:20:34.289Z,79.21
2023-02-19T15:23:07.358Z,79.07
2023-02-19T15:25:40.640Z,78.76
2023-02-19T15:28:26.379Z,78.49
2023-02-19T15:30:57.978Z,78.62
2023-02-19T15:33:27.923Z,78.79
2023-02-19T15:36:01.161Z,79.08
2023-02-19T15:38:30.157Z,79.38
2023-02-19T15:40:58.825Z,79.81
2023-02-19T15:43:33.295Z,80.32
2023-02-19T15:46:04.808Z,80.76
2023-02-19T15:48:41.475Z,81.25
2023-02-19T15:51:15.364Z,81.43
2023-02-19T15:53:48.078Z,81.90
2023-02-19T15:56:28.743Z,82.48
2023-02-19T15:59:02.161Z,81.59
2023-02-19T16:01:36.647Z,80.91
2023-02-19T16:04:09.126Z,80.76
2023-02-19T16:07:00.741Z,81.10
2023-02-19T16:09:33.737Z,82.59
2023-02-19T16:12:02.783Z,84.12
2023-02-19T16:14:32.311Z,85.75
2023-02-19T16:17:10.385Z,87.23
2023-02-19T16:20:00.692Z,88.81
2023-02-19T16:22:31.132Z,89.57
2023-02-19T16:25:03.692Z,90.40
2023-02-19T16:27:37.311Z,91.06
2023-02-19T16:30:10.803Z,91.57
2023-02-19T16:32:40.630Z,92.08
2023-02-19T16:35:35.681Z,92.59
2023-02-19T16:38:20.176Z,93.05
2023-02-19T16:40:48.946Z,93.40
2023-02-19T16:43:30.604Z,93.79
2023-02-19T16:45:59.457Z,94.40
2023-02-19T16:48:28.059Z,95.02
2023-02-19T16:51:01.629Z,95.54
2023-02-19T16:53:30.814Z,96.61
2023-02-19T16:56:00.096Z,97.31
2023-02-19T16:58:29.829Z,98.04
2023-02-19T17:00:58.358Z,98.81
2023-02-19T17:03:28.053Z,99.49
2023-02-19T17:05:56.414Z,99.97
2023-02-19T17:08:35.324Z,100.00
2023-02-19T17:11:11.726Z,100.00
2023-02-19T17:13:40.997Z,100.00
2023-02-19T17:16:13.736Z,100.00
2023-02-19T17:18:43.465Z,100.00
2023-02-19T17:21:19.914Z,100.00
2023-02-19T17:23:48.245Z,100.00
2023-02-19T17:26:24.683Z,100.00
2023-02-19T17:28:56.532Z,100.00
2023-02-19T17:31:25.127Z,100.00
2023-02-19T17:33:53.615Z,100.00
2023-02-19T17:36:32.996Z,100.00
2023-02-19T17:39:02.814Z,100.00
2023-02-19T17:41:31.654Z,100.00
2023-02-19T17:44:00.383Z,100.00
2023-02-19T17:46:28.887Z,100.00
2023-02-19T17:48:57.300Z,100.00
2023-02-19T17:51:25.831Z,100.00
2023-02-19T17:53:54.183Z,100.00
2023-02-19T17:56:26.508Z,100.00
2023-02-19T17:58:55.886Z,100.00
2023-02-19T18:01:24.662Z,100.00
2023-02-19T18:03:53.232Z,100.00
2023-02-19T18:06:21.668Z,100.00
2023-02-19T18:08:52.903Z,100.00
2023-02-19T18:11:22.796Z,100.00
2023-02-19T18:13:55.298Z,100.00
2023-02-19T18:16:24.525Z,100.00
2023-02-19T18:18:53.295Z,100.00
2023-02-19T18:21:24.720Z,100.00
2023-02-19T18:23:53.701Z,100.00
2023-02-19T18:26:23.962Z,100.00
2023-02-19T18:28:52.921Z,100.00
2023-02-19T18:31:23.459Z,100.00
2023-02-19T18:33:52.307Z,100.00
2023-02-19T18:36:21.350Z,100.00
2023-02-19T18:38:50.032Z,100.00
2023-02-19T18:41:21.398Z,100.00
2023-02-19T18:43:51.080Z,100.00
2023-02-19T18:46:21.090Z,100.00
2023-02-19T18:48:50.332Z,100.00
2023-02-19T18:51:23.559Z,100.00
2023-02-19T18:53:54.178Z,100.00
2023-02-19T18:56:23.214Z,100.00
2023-02-19T18:58:52.031Z,100.00
2023-02-19T19:01:20.415Z,100.00
2023-02-19T19:03:55.856Z,100.00
2023-02-19T19:06:25.375Z,100.00
2023-02-19T19:08:54.203Z,100.00
2023-02-19T19:11:23.308Z,100.00
2023-02-19T19:13:52.395Z,100.00
2023-02-19T19:16:25.143Z,100.00
2023-02-19T19:18:53.923Z,100.00
2023-02-19T19:21:22.451Z,100.00
2023-02-19T19:23:51.099Z,100.00
2023-02-19T19:26:20.247Z,100.00
2023-02-19T19:28:49.269Z,100.00
2023-02-19T19:31:18.672Z,100.00
2023-02-19T19:33:47.990Z,100.00
2023-02-19T19:36:20.716Z,100.00
2023-02-19T19:38:50.118Z,100.00
2023-02-19T19:41:19.427Z,100.00
2023-02-19T19:43:48.611Z,100.00
2023-02-19T19:46:20.070Z,100.00
2023-02-19T19:48:50.026Z,100.00
2023-02-19T19:51:18.715Z,100.00
2023-02-19T19:53:47.984Z,100.00
2023-02-19T19:56:18.047Z,100.00
2023-02-19T19:58:48.631Z,100.00
2023-02-19T20:01:21.332Z,100.00
2023-02-19T20:03:51.912Z,100.00
2023-02-19T20:06:25.525Z,100.00
2023-02-19T20:08:57.573Z,100.00
2023-02-19T20:11:26.161Z,100.00
2023-02-19T20:13:54.445Z,100.00
2023-02-19T20:16:28.590Z,100.00
2023-02-19T20:18:57.062Z,100.00
2023-02-19T20:21:26.827Z,100.00
2023-02-19T20:23:55.887Z,100.00
2023-02-19T20:26:25.860Z,100.00
2023-02-19T20:28:54.332Z,100.00
2023-02-19T20:31:23.135Z,100.00
2023-02-19T20:33:54.329Z,100.00
2023-02-19T20:36:23.191Z,100.00
2023-02-19T20:38:51.855Z,100.00
2023-02-19T20:41:21.580Z,100.00
2023-02-19T20:43:50.135Z,100.00
2023-02-19T20:46:19.831Z,100.00
2023-02-19T20:48:49.471Z,100.00
2023-02-19T20:51:19.907Z,100.00
2023-02-19T20:53:48.165Z,100.00
2023-02-19T20:56:16.588Z,100.00
2023-02-19T20:58:45.013Z,100.00
2023-02-19T21:01:17.483Z,100.00
2023-02-19T21:03:46.657Z,100.00
2023-02-19T21:06:15.672Z,100.00
2023-02-19T21:08:45.296Z,100.00
2023-02-19T21:11:13.656Z,100.00
2023-02-19T21:13:43.154Z,100.00
2023-02-19T21:16:11.724Z,100.00
2023-02-19T21:18:40.166Z,100.00
2023-02-19T21:21:08.758Z,100.00
2023-02-19T21:23:37.223Z,100.00
2023-02-19T21:26:05.839Z,100.00
2023-02-19T21:28:35.641Z,100.00
2023-02-19T21:31:04.538Z,100.00
2023-02-19T21:33:32.890Z,100.00
2023-02-19T21:36:03.554Z,100.00
2023-02-19T21:38:32.705Z,100.00
2023-02-19T21:41:01.458Z,100.00
2023-02-19T21:43:31.165Z,100.00
2023-02-19T21:46:00.287Z,100.00
2023-02-19T21:48:28.942Z,100.00
2023-02-19T21:50:57.214Z,100.00
2023-02-19T21:53:25.574Z,100.00
2023-02-19T21:55:58.769Z,100.00
2023-02-19T21:58:29.149Z,100.00
2023-02-19T22:00:58.448Z,100.00
2023-02-19T22:03:26.923Z,100.00
2023-02-19T22:05:55.687Z,100.00
2023-02-19T22:08:24.046Z,100.00
2023-02-19T22:10:53.810Z,100.00
2023-02-19T22:13:22.077Z,100.00
2023-02-19T22:15:52.553Z,100.00
2023-02-19T22:18:20.999Z,100.00
2023-02-19T22:20:52.609Z,100.00
2023-02-19T22:23:22.176Z,100.00
2023-02-19T22:25:50.682Z,100.00
2023-02-19T22:28:19.280Z,100.00
2023-02-19T22:30:47.752Z,100.00
2023-02-19T22:33:16.115Z,100.00
2023-02-19T22:35:44.380Z,100.00
2023-02-19T22:38:12.641Z,100.00
2023-02-19T22:40:41.378Z,100.00
2023-02-19T22:43:10.380Z,100.00
2023-02-19T22:45:38.949Z,100.00
2023-02-19T22:48:07.806Z,100.00
2023-02-19T22:50:36.278Z,100.00
2023-02-19T22:53:04.940Z,100.00
2023-02-19T22:55:33.504Z,100.00
2023-02-19T22:58:02.945Z,100.00
2023-02-19T23:00:31.572Z,100.00
2023-02-19T23:02:59.881Z,100.00
2023-02-19T23:05:28.290Z,100.00
2023-02-19T23:07:57.211Z,100.00
2023-02-19T23:10:25.464Z,100.00
2023-02-19T23:12:56.013Z,100.00
2023-02-19T23:15:26.514Z,100.00
2023-02-19T23:17:54.910Z,100.00
2023-02-19T23:20:24.189Z,100.00
2023-02-19T23:22:52.570Z,100.00
2023-02-19T23:25:20.774Z,100.00
2023-02-19T23:27:49.074Z,100.00
2023-02-19T23:30:17.649Z,100.00
2023-02-19T23:32:46.042Z,100.00
2023-02-19T23:35:14.424Z,100.00
2023-02-19T23:37:42.812Z,100.00
2023-02-19T23:40:12.549Z,100.00
2023-02-19T23:42:41.326Z,100.00
2023-02-19T23:45:09.678Z,100.00
2023-02-19T23:47:38.236Z,100.00
2023-02-19T23:50:07.302Z,100.00
2023-02-19T23:52:35.598Z,100.00
2023-02-19T23:55:04.454Z,100.00
2023-02-19T23:57:33.094Z,100.00
